Time;durP1;ratioP1;P1;durP2;ratioP2;P2;SDS_P1;SDS_P2;PMS_P1;PMS_P2;Temp;Humidity;BMP_temperature;BMP_pressure;BME280_temperature;BME280_humidity;BME280_pressure;Samples;Min_cycle;Max_cycle;Signal;HPM_P1;HPM_P2
2021/07/25 06:49:41;;;;;;;0.30;0.30;;;;;;;26.03;33.44;100112.47;5890699;23;20030;31
2021/07/25 06:52:08;;;;;;;0.28;0.28;;;;;;;25.66;34.36;100118.19;4919578;29;20051;-82
2021/07/25 06:54:38;;;;;;;0.20;0.20;;;;;;;24.76;35.08;100118.28;4925173;29;20020;-83
2021/07/25 06:57:15;;;;;;;0.40;0.40;;;;;;;24.09;36.61;100123.66;4901665;29;20502;-84
2021/07/25 06:59:41;;;;;;;1.10;1.10;;;;;;;25.48;34.61;100121.91;4928298;29;20182;-82
2021/07/25 07:02:14;;;;;;;0.90;0.90;;;;;;;26.98;32.40;100125.06;4963410;29;20143;-84
2021/07/25 07:04:47;;;;;;;0.98;0.98;;;;;;;26.82;31.54;100121.16;4934342;29;20091;-82
2021/07/25 07:07:23;;;;;;;1.00;1.00;;;;;;;28.18;28.93;100124.97;4934029;29;20043;-82
2021/07/25 07:09:57;;;;;;;0.95;0.95;;;;;;;29.59;27.93;100131.75;4972288;23;20062;-83
2021/07/25 07:12:28;;;;;;;0.80;0.80;;;;;;;29.64;25.96;100134.56;4942016;29;20039;-83
2021/07/25 07:15:01;;;;;;;0.90;0.90;;;;;;;30.64;24.96;100127.19;4924693;29;20575;-81
2021/07/25 07:17:37;;;;;;;0.90;0.90;;;;;;;30.62;24.20;100112.66;4954214;29;20023;-84
2021/07/25 07:20:11;;;;;;;0.90;0.90;;;;;;;31.67;23.21;100117.13;4912391;29;20054;-82
2021/07/25 07:22:52;;;;;;;0.93;0.93;;;;;;;30.55;24.17;100126.00;4924246;29;20067;-83
2021/07/25 07:25:21;;;;;;;0.90;0.90;;;;;;;30.76;23.77;100129.78;4942892;29;20095;-82
2021/07/25 07:27:48;;;;;;;0.90;0.90;;;;;;;31.01;22.95;100126.22;4926654;29;20091;-82
2021/07/25 07:30:15;;;;;;;0.80;0.80;;;;;;;30.21;24.33;100119.97;4933856;29;20054;-81
2021/07/25 07:32:41;;;;;;;0.90;0.90;;;;;;;29.90;25.12;100121.66;4935471;29;20107;-83
2021/07/25 07:35:09;;;;;;;1.00;1.00;;;;;;;31.15;24.55;100126.53;4936544;29;20071;-82
2021/07/25 07:37:35;;;;;;;0.90;0.90;;;;;;;31.73;22.39;100121.59;4905062;29;20084;-83
2021/07/25 07:40:03;;;;;;;1.00;1.00;;;;;;;32.09;22.65;100129.97;4906676;29;20042;-80
2021/07/25 07:42:30;;;;;;;1.00;1.00;;;;;;;33.05;21.05;100137.25;4930897;29;20052;-82
2021/07/25 07:44:58;;;;;;;0.90;0.90;;;;;;;33.17;21.23;100125.72;4922495;29;20039;-83
2021/07/25 07:47:24;;;;;;;0.90;0.90;;;;;;;33.02;21.34;100121.03;4919057;29;20044;-80
2021/07/25 07:49:52;;;;;;;0.90;0.90;;;;;;;34.07;20.11;100130.09;4943512;29;20055;-81
2021/07/25 07:52:20;;;;;;;0.90;0.90;;;;;;;34.64;19.89;100128.38;4932091;29;20051;-83
2021/07/25 07:54:49;;;;;;;0.80;0.80;;;;;;;34.73;19.05;100114.47;4912111;29;20087;-83
2021/07/25 07:57:17;;;;;;;0.70;0.70;;;;;;;34.65;19.09;100118.81;4939351;29;20044;-78
2021/07/25 07:59:44;;;;;;;0.38;0.38;;;;;;;34.65;19.28;100121.59;4923692;29;20347;-81
2021/07/25 08:02:22;;;;;;;1.00;1.00;;;;;;;35.65;18.59;100122.47;4940959;29;20044;-83
2021/07/25 08:04:50;;;;;;;1.20;1.20;;;;;;;35.37;18.73;100117.84;4912227;29;20043;-81
2021/07/25 08:07:18;;;;;;;1.15;1.15;;;;;;;33.38;20.30;100126.41;4924451;29;20048;-82
2021/07/25 08:09:45;;;;;;;1.30;1.30;;;;;;;32.22;21.22;100125.78;4894099;29;20080;-81
2021/07/25 08:12:12;;;;;;;0.40;0.40;;;;;;;33.98;20.21;100126.22;4910136;29;20063;-82
2021/07/25 08:14:39;;;;;;;0.80;0.80;;;;;;;33.68;20.21;100111.34;4922659;29;20040;-83
2021/07/25 08:17:06;;;;;;;0.20;0.20;;;;;;;34.11;19.88;100119.09;4921875;29;20048;-85
2021/07/25 08:19:34;;;;;;;0.20;0.20;;;;;;;32.00;21.97;100110.16;4925851;29;20096;-82
2021/07/25 08:22:02;;;;;;;0.10;0.10;;;;;;;29.98;24.18;100122.03;4923670;29;20080;-82
2021/07/25 08:24:35;;;;;;;0.10;0.10;;;;;;;30.31;24.18;100106.06;4910723;29;20048;-82
2021/07/25 08:27:07;;;;;;;0.10;0.10;;;;;;;29.52;25.50;100116.03;4921981;29;20060;-84
2021/07/25 08:29:34;;;;;;;0.10;0.10;;;;;;;28.83;25.92;100107.50;4872720;29;20040;-82
2021/07/25 08:32:01;;;;;;;0.10;0.10;;;;;;;28.62;26.09;100108.34;4899220;29;20108;-83
2021/07/25 08:34:37;;;;;;;0.10;0.10;;;;;;;27.61;27.88;100110.16;4908772;29;20172;-83
2021/07/25 08:37:05;;;;;;;0.13;0.13;;;;;;;27.63;27.63;100112.69;4911565;29;20474;-83
2021/07/25 08:39:32;;;;;;;0.30;0.30;;;;;;;27.74;28.07;100103.41;4937176;29;20055;-83
2021/07/25 08:42:10;;;;;;;1.40;1.40;;;;;;;28.90;25.77;100113.72;4885827;29;20055;-83
2021/07/25 08:44:44;;;;;;;0.20;0.20;;;;;;;28.32;26.93;100112.38;4891800;29;20063;-84
2021/07/25 08:47:25;;;;;;;0.20;0.20;;;;;;;28.67;26.58;100108.41;4922820;29;20155;-81
2021/07/25 08:49:56;;;;;;;0.32;0.32;;;;;;;28.09;27.47;100114.28;4905968;29;20071;-83
2021/07/25 08:52:25;;;;;;;0.10;0.10;;;;;;;28.03;27.77;100115.28;4890721;29;20440;-82
2021/07/25 08:54:54;;;;;;;0.20;0.20;;;;;;;27.54;28.77;100117.00;4886813;29;20047;-83
2021/07/25 08:57:25;;;;;;;0.20;0.20;;;;;;;27.70;28.57;100118.06;4888449;29;20091;-80
2021/07/25 08:59:53;;;;;;;0.20;0.20;;;;;;;27.91;28.15;100114.56;4892126;29;20048;-84
2021/07/25 09:02:28;;;;;;;0.15;0.15;;;;;;;27.68;28.41;100117.47;4887437;29;20048;-82
2021/07/25 09:04:56;;;;;;;0.10;0.10;;;;;;;27.46;28.49;100123.81;4903245;29;20118;-81
2021/07/25 09:07:25;;;;;;;0.20;0.20;;;;;;;27.24;28.59;100122.81;4893585;29;20056;-81
2021/07/25 09:09:55;;;;;;;0.20;0.20;;;;;;;26.72;28.63;100117.34;4924248;29;20060;-81
2021/07/25 09:12:22;;;;;;;0.20;0.20;;;;;;;26.47;29.74;100124.03;4918465;29;20044;-82
2021/07/25 09:14:53;;;;;;;0.20;0.20;;;;;;;26.33;29.77;100125.38;4896730;29;20071;-83
2021/07/25 09:17:20;;;;;;;0.20;0.20;;;;;;;26.12;29.40;100130.44;4908350;29;20078;-82
2021/07/25 09:20:09;;;;;;;0.17;0.17;;;;;;;25.55;31.42;100121.81;4917475;29;20280;-83
2021/07/25 09:22:48;;;;;;;0.17;0.17;;;;;;;25.22;31.89;100134.22;4933165;29;20052;-82
2021/07/25 09:25:25;;;;;;;0.20;0.20;;;;;;;25.11;32.01;100131.44;4917587;29;20044;-82
2021/07/25 09:27:58;;;;;;;0.20;0.20;;;;;;;25.02;32.32;100133.66;4902105;29;20058;-83
2021/07/25 09:30:30;;;;;;;0.15;0.15;;;;;;;24.91;31.99;100131.69;4915968;29;20048;-86
2021/07/25 09:33:00;;;;;;;0.10;0.10;;;;;;;24.72;32.61;100133.63;4921942;29;20044;-82
2021/07/25 09:35:31;;;;;;;0.10;0.10;;;;;;;24.72;32.83;100123.41;4880887;29;20066;-83
2021/07/25 09:38:05;;;;;;;0.15;0.15;;;;;;;24.90;32.80;100135.50;4920712;29;20107;-82
2021/07/25 09:40:37;;;;;;;0.10;0.10;;;;;;;25.03;32.49;100135.34;4904488;29;20053;-82
2021/07/25 09:43:21;;;;;;;0.10;0.10;;;;;;;25.18;32.67;100133.00;4921968;29;20131;-84
2021/07/25 09:45:54;;;;;;;0.10;0.10;;;;;;;25.08;33.06;100132.69;4910765;29;20044;-82
2021/07/25 09:48:35;;;;;;;0.10;0.10;;;;;;;24.94;32.64;100131.22;4886198;29;20040;-82
2021/07/25 09:51:17;;;;;;;0.10;0.10;;;;;;;25.41;32.04;100131.41;4901577;29;20060;-85
2021/07/25 09:54:06;;;;;;;0.20;0.20;;;;;;;25.31;32.08;100137.53;4931338;29;20107;-82
2021/07/25 09:56:35;;;;;;;0.10;0.10;;;;;;;25.37;32.22;100131.03;4917327;29;20051;-82
2021/07/25 09:59:03;;;;;;;0.10;0.10;;;;;;;25.63;31.58;100140.88;4899477;29;20045;-84
2021/07/25 10:01:37;;;;;;;0.10;0.10;;;;;;;25.83;31.40;100139.69;4932574;29;20201;-82
2021/07/25 10:04:21;;;;;;;0.20;0.20;;;;;;;25.73;31.34;100141.09;4917594;29;20509;-84
2021/07/25 10:06:52;;;;;;;0.20;0.20;;;;;;;25.72;31.52;100142.19;4913677;29;20046;-82
2021/07/25 10:09:20;;;;;;;0.10;0.10;;;;;;;24.93;33.25;100146.94;4903717;29;20494;-84
2021/07/25 10:12:01;;;;;;;0.20;0.20;;;;;;;25.39;32.70;100139.13;4902799;29;20040;-84
2021/07/25 10:14:30;;;;;;;0.10;0.10;;;;;;;25.64;32.38;100148.06;4932800;29;20115;-81
2021/07/25 10:17:01;;;;;;;0.20;0.20;;;;;;;25.49;31.68;100144.91;4935603;29;20040;-83
2021/07/25 10:19:42;;;;;;;0.20;0.20;;;;;;;24.98;32.72;100147.13;4923664;29;20530;-82
2021/07/25 10:22:10;;;;;;;0.20;0.20;;;;;;;25.00;32.56;100135.81;4881227;29;20080;-84
2021/07/25 10:24:39;;;;;;;0.20;0.20;;;;;;;25.37;32.25;100146.78;4901571;29;20047;-81
2021/07/25 10:27:07;;;;;;;0.20;0.20;;;;;;;25.14;32.95;100151.19;4902025;29;20032;-83
2021/07/25 10:29:38;;;;;;;0.20;0.20;;;;;;;25.58;32.34;100148.19;4901472;29;20460;-84
2021/07/25 10:32:10;;;;;;;0.20;0.20;;;;;;;25.45;32.21;100154.78;4922616;29;20032;-83
2021/07/25 10:34:39;;;;;;;0.20;0.20;;;;;;;25.21;32.56;100160.22;4894245;29;20052;-82
2021/07/25 10:37:07;;;;;;;0.20;0.20;;;;;;;25.63;31.54;100160.25;4923054;29;20366;-81
2021/07/25 10:39:37;;;;;;;0.20;0.20;;;;;;;25.93;31.56;100156.59;4939584;29;20040;-82
2021/07/25 10:42:04;;;;;;;0.30;0.30;;;;;;;25.51;32.13;100159.34;4939683;29;20084;-83
2021/07/25 10:44:33;;;;;;;0.30;0.30;;;;;;;25.86;31.36;100166.94;4908349;29;20112;-83
2021/07/25 10:47:33;;;;;;;0.20;0.20;;;;;;;26.19;30.57;100150.56;4909864;29;20055;-84
2021/07/25 10:50:09;;;;;;;0.30;0.30;;;;;;;26.34;30.44;100152.00;4890252;29;20580;-84
2021/07/25 10:52:57;;;;;;;0.30;0.30;;;;;;;26.46;30.43;100150.06;4922868;29;20048;-85
2021/07/25 10:55:38;;;;;;;0.20;0.20;;;;;;;26.96;29.03;100149.47;4934836;29;20067;-85
2021/07/25 10:58:19;;;;;;;0.20;0.20;;;;;;;27.31;29.01;100154.03;4932733;29;20098;-82
2021/07/25 11:00:56;;;;;;;0.20;0.20;;;;;;;27.37;28.64;100155.84;4911895;29;20047;-83
2021/07/25 11:03:30;;;;;;;0.20;0.20;;;;;;;26.20;29.62;100146.69;4926650;29;20048;-84
2021/07/25 11:06:07;;;;;;;0.20;0.20;;;;;;;26.12;30.27;100154.53;4924119;29;20045;-83
2021/07/25 11:08:50;;;;;;;0.20;0.20;;;;;;;26.50;29.35;100154.03;4920427;29;20063;-84
2021/07/25 11:11:34;;;;;;;0.20;0.20;;;;;;;26.08;30.72;100154.19;4911176;29;20048;-83
2021/07/25 11:14:07;;;;;;;0.20;0.20;;;;;;;26.31;30.81;100152.47;4908401;29;20105;-84
2021/07/25 11:16:34;;;;;;;0.20;0.20;;;;;;;26.16;30.78;100156.56;4905352;29;20807;-82
2021/07/25 11:19:23;;;;;;;0.20;0.20;;;;;;;26.04;31.29;100158.50;4919392;29;20063;-83
2021/07/25 11:21:53;;;;;;;0.60;0.60;;;;;;;26.35;30.23;100148.97;4915280;29;20059;-83
2021/07/25 11:24:23;;;;;;;0.70;0.70;;;;;;;28.46;27.79;100147.09;4922791;29;20071;-83
2021/07/25 11:26:53;;;;;;;0.40;0.40;;;;;;;30.02;25.86;100153.84;4921019;29;20036;-86
2021/07/25 11:29:22;;;;;;;0.90;0.90;;;;;;;30.59;24.67;100145.84;4899541;29;20072;-82
2021/07/25 11:31:50;;;;;;;0.30;0.30;;;;;;;30.89;24.51;100148.78;4887000;29;20123;-83
2021/07/25 11:34:29;;;;;;;0.20;0.20;;;;;;;28.73;26.59;100141.59;4918326;29;20072;-81
2021/07/25 11:37:02;;;;;;;1.45;1.45;;;;;;;29.89;25.76;100143.13;4905982;29;20044;-83
2021/07/25 11:39:32;;;;;;;0.20;0.20;;;;;;;31.23;23.96;100145.56;4899412;29;20068;-84
2021/07/25 11:42:12;;;;;;;0.20;0.20;;;;;;;29.77;25.59;100150.84;4905491;29;20040;-86
2021/07/25 11:44:42;;;;;;;0.20;0.20;;;;;;;29.75;25.08;100153.06;4905589;29;20490;-81
2021/07/25 11:47:27;;;;;;;0.20;0.20;;;;;;;29.93;25.11;100146.22;4922893;29;20084;-86
2021/07/25 11:49:57;;;;;;;0.10;0.10;;;;;;;29.43;25.73;100145.47;4920936;29;20048;-82
2021/07/25 11:52:28;;;;;;;0.20;0.20;;;;;;;28.92;26.60;100149.63;4871827;29;20060;-84
2021/07/25 11:54:55;;;;;;;0.20;0.20;;;;;;;28.49;27.24;100156.88;4924498;29;20072;-84
2021/07/25 11:57:29;;;;;;;0.20;0.20;;;;;;;28.95;27.03;100144.38;4925098;29;20040;-84
2021/07/25 12:00:01;;;;;;;0.32;0.32;;;;;;;29.63;26.11;100144.03;4919658;29;20039;-83
2021/07/25 12:02:34;;;;;;;0.60;0.60;;;;;;;29.79;25.99;100148.63;4904527;29;20059;-82
2021/07/25 12:05:01;;;;;;;0.20;0.20;;;;;;;28.44;27.05;100143.72;4892768;29;20048;-83
2021/07/25 12:07:35;;;;;;;0.20;0.20;;;;;;;28.58;26.64;100150.59;4901881;29;20536;-81
2021/07/25 12:10:02;;;;;;;0.10;0.10;;;;;;;28.58;26.99;100144.19;4917202;29;20102;-81
2021/07/25 12:12:36;;;;;;;0.20;0.20;;;;;;;28.84;26.83;100139.78;4920864;29;20132;-83
2021/07/25 12:15:03;;;;;;;;;;;;;;;28.98;26.55;100145.81;4903928;29;20044;-84
2021/07/25 12:17:38;;;;;;;0.20;0.20;;;;;;;28.56;26.63;100144.47;4891794;29;19931;-83
2021/07/25 12:20:10;;;;;;;0.57;0.57;;;;;;;28.09;27.39;100142.09;4914339;29;20127;-83
2021/07/25 12:22:56;;;;;;;0.68;0.68;;;;;;;29.89;25.72;100150.66;4893963;29;20517;-81
2021/07/25 12:25:25;;;;;;;0.40;0.40;;;;;;;30.36;24.80;100136.78;4916227;29;20044;-81
2021/07/25 12:28:04;;;;;;;0.40;0.40;;;;;;;31.13;23.54;100145.53;4919980;29;20210;-81
2021/07/25 12:30:47;;;;;;;0.40;0.40;;;;;;;30.51;24.28;100150.81;4913469;29;20490;-85
2021/07/25 12:33:16;;;;;;;0.17;0.17;;;;;;;28.55;26.30;100137.19;4892431;29;20036;-80
2021/07/25 12:35:42;;;;;;;0.13;0.13;;;;;;;28.71;26.41;100140.19;4899742;29;20502;-80
2021/07/25 12:38:11;;;;;;;0.20;0.20;;;;;;;28.50;27.21;100142.69;4900050;29;20036;-80
2021/07/25 12:40:54;;;;;;;0.10;0.10;;;;;;;28.09;27.15;100128.19;4911709;29;20043;-79
2021/07/25 12:43:26;;;;;;;0.10;0.10;;;;;;;28.03;27.65;100131.13;4895199;29;20520;-81
2021/07/25 12:45:57;;;;;;;0.10;0.10;;;;;;;28.54;26.97;100132.75;4890467;29;20036;-83
2021/07/25 12:48:26;;;;;;;0.10;0.10;;;;;;;28.56;26.81;100138.91;4902988;29;20056;-83
2021/07/25 12:53:53;;;;;;;0.10;0.10;;;;;;;28.23;27.40;100130.59;4910199;29;20040;-82
2021/07/25 12:56:26;;;;;;;0.10;0.10;;;;;;;27.30;28.00;100133.78;4909869;29;20048;-82
2021/07/25 12:59:04;;;;;;;0.10;0.10;;;;;;;27.81;27.70;100128.28;4924826;29;20046;-82
2021/07/25 13:04:12;;;;;;;0.10;0.10;;;;;;;26.19;28.64;100124.78;4931204;29;20059;-82
2021/07/25 13:06:49;;;;;;;0.10;0.10;;;;;;;26.01;28.03;100124.91;4923246;29;20629;-82
2021/07/25 13:09:21;;;;;;;0.10;0.10;;;;;;;25.79;28.48;100125.50;4906346;29;20385;-80
2021/07/25 13:11:51;;;;;;;0.10;0.10;;;;;;;26.34;28.78;100121.50;4915921;29;20063;-83
2021/07/25 13:14:29;;;;;;;0.10;0.10;;;;;;;26.36;27.96;100116.53;4942997;29;20036;-81
2021/07/25 13:16:58;;;;;;;0.10;0.10;;;;;;;26.13;29.87;100117.41;4926720;29;20107;-84
2021/07/25 13:19:27;;;;;;;0.10;0.10;;;;;;;26.43;30.57;100122.78;4911129;29;20073;-83
2021/07/25 13:21:59;;;;;;;0.10;0.10;;;;;;;25.43;32.25;100127.31;4940981;29;20052;-83
2021/07/25 13:24:27;;;;;;;0.10;0.10;;;;;;;25.14;32.02;100115.19;4931104;29;20106;-82
2021/07/25 13:26:54;;;;;;;0.10;0.10;;;;;;;25.00;33.13;100113.66;4942200;29;20116;-83
2021/07/25 13:29:21;;;;;;;0.10;0.10;;;;;;;25.51;31.83;100120.59;4944784;29;20095;-82
2021/07/25 13:31:49;;;;;;;0.10;0.10;;;;;;;25.77;31.98;100110.16;4932418;29;20174;-82
2021/07/25 13:34:17;;;;;;;0.10;0.10;;;;;;;25.56;32.55;100112.44;4925468;29;20044;-83
2021/07/25 13:36:45;;;;;;;0.10;0.10;;;;;;;25.32;33.34;100122.59;4911997;29;20031;-84
2021/07/25 13:39:12;;;;;;;0.10;0.10;;;;;;;24.99;34.13;100117.53;4909466;29;20040;-82
2021/07/25 13:41:38;;;;;;;0.10;0.10;;;;;;;25.22;33.66;100116.78;4921615;29;20115;-82
2021/07/25 13:44:06;;;;;;;0.10;0.10;;;;;;;25.46;32.89;100128.78;4927077;29;20127;-83
2021/07/25 13:46:55;;;;;;;0.10;0.10;;;;;;;25.82;32.39;100122.25;4922624;29;20047;-84
2021/07/25 13:49:21;;;;;;;0.10;0.10;;;;;;;25.34;32.07;100127.88;4901590;29;20086;-82
2021/07/25 13:51:48;;;;;;;0.10;0.10;;;;;;;24.97;32.85;100119.66;4925591;29;20092;-82
2021/07/25 13:54:14;;;;;;;0.10;0.10;;;;;;;24.89;33.25;100112.53;4924942;29;20075;-83
2021/07/25 13:56:43;;;;;;;0.10;0.10;;;;;;;24.81;33.50;100125.84;4923478;29;20047;-82
2021/07/25 13:59:09;;;;;;;0.10;0.10;;;;;;;24.90;33.50;100118.91;4941520;29;20048;-82
2021/07/25 14:01:37;;;;;;;0.17;0.10;;;;;;;24.55;33.92;100116.81;4925695;29;20063;-81
2021/07/25 14:04:03;;;;;;;0.10;0.10;;;;;;;24.65;34.27;100128.19;4937014;29;20051;-84
2021/07/25 14:06:30;;;;;;;0.10;0.10;;;;;;;24.67;33.60;100126.03;4924181;29;20071;-84
2021/07/25 14:08:56;;;;;;;0.10;0.10;;;;;;;24.45;33.71;100122.03;4924377;29;20063;-82
2021/07/25 14:11:23;;;;;;;0.10;0.10;;;;;;;24.53;33.45;100124.50;4929560;29;20035;-84
2021/07/25 14:13:58;;;;;;;0.10;0.10;;;;;;;24.16;34.12;100129.97;4915480;29;20130;-83
2021/07/25 14:16:32;;;;;;;0.10;0.10;;;;;;;24.20;34.13;100136.72;4928695;29;20075;-79
2021/07/25 14:19:24;;;;;;;0.10;0.10;;;;;;;24.27;33.88;100129.22;4926146;29;20050;-82
2021/07/25 14:23:09;;;;;;;0.10;0.10;;;;;;;24.46;33.62;100129.25;5469403;23;20026;-82
2021/07/25 14:26:08;;;;;;;0.10;0.10;;;;;;;24.18;33.92;100125.09;4879862;29;20083;-81
2021/07/25 14:28:40;;;;;;;0.10;0.10;;;;;;;24.10;34.19;100124.53;4937927;29;20049;-84
2021/07/25 14:31:09;;;;;;;0.10;0.10;;;;;;;24.18;33.83;100133.38;4952906;28;20042;-82
2021/07/25 14:33:38;;;;;;;0.10;0.10;;;;;;;24.26;33.45;100124.78;4922269;29;20098;-83
2021/07/25 14:36:09;;;;;;;0.10;0.10;;;;;;;24.59;33.00;100123.56;4934263;29;20133;-82
2021/07/25 14:38:36;;;;;;;0.10;0.10;;;;;;;24.77;33.04;100119.94;4939581;29;20039;-83
2021/07/25 14:41:02;;;;;;;0.10;0.10;;;;;;;24.69;32.67;100121.13;4950092;28;20399;-83
2021/07/25 14:43:29;;;;;;;0.50;0.40;;;;;;;24.75;32.33;100117.44;4949906;28;20047;-81
2021/07/25 14:45:56;;;;;;;0.10;0.10;;;;;;;24.74;33.00;100131.47;4938788;29;20172;-82
2021/07/25 14:48:24;;;;;;;0.10;0.10;;;;;;;24.57;33.05;100125.72;4965569;28;20046;-83
2021/07/25 14:50:50;;;;;;;0.10;0.10;;;;;;;24.66;33.41;100121.56;4957157;29;20051;-82
2021/07/25 14:53:18;;;;;;;0.10;0.10;;;;;;;24.63;33.45;100119.28;4954141;28;20055;-84
2021/07/25 14:55:45;;;;;;;0.10;0.10;;;;;;;24.65;33.73;100106.06;4924921;29;20122;-83
2021/07/25 14:58:10;;;;;;;0.10;0.10;;;;;;;24.63;33.76;100108.22;4902270;29;20123;-83
2021/07/25 15:00:37;;;;;;;0.10;0.10;;;;;;;24.64;33.58;100120.94;4945856;29;20466;-84
2021/07/25 15:03:04;;;;;;;0.10;0.10;;;;;;;24.58;33.56;100127.44;4930867;29;20051;-83
2021/07/25 15:05:30;;;;;;;0.00;0.00;;;;;;;24.55;33.29;100114.06;4905188;29;20404;-83
2021/07/25 15:07:56;;;;;;;0.10;0.10;;;;;;;24.46;33.68;100112.66;4936737;29;20043;-81
2021/07/25 15:10:23;;;;;;;0.10;0.10;;;;;;;24.21;33.65;100126.56;4920445;29;20039;-83
2021/07/25 15:12:50;;;;;;;0.10;0.10;;;;;;;23.74;34.41;100110.44;4963919;28;20058;-83
2021/07/25 15:15:17;;;;;;;0.10;0.10;;;;;;;23.51;34.76;100126.72;4956123;29;20103;-81
2021/07/25 15:17:43;;;;;;;0.10;0.10;;;;;;;23.48;35.10;100129.94;4960152;29;20102;-83
2021/07/25 15:20:10;;;;;;;0.10;0.10;;;;;;;23.33;35.08;100133.03;4923498;29;20146;-82
2021/07/25 15:22:38;;;;;;;0.10;0.10;;;;;;;23.40;35.17;100132.94;4953174;28;20043;-82
2021/07/25 15:25:06;;;;;;;0.10;0.10;;;;;;;23.46;35.16;100129.31;4958195;29;20134;-83
2021/07/25 15:27:33;;;;;;;0.10;0.10;;;;;;;23.25;35.67;100133.28;4905159;28;20074;-82
2021/07/25 15:30:04;;;;;;;0.10;0.10;;;;;;;23.34;35.88;100130.03;4902421;29;20047;-82
2021/07/25 15:32:31;;;;;;;0.10;0.10;;;;;;;23.14;36.58;100128.47;4946855;28;20050;-82
2021/07/25 15:34:58;;;;;;;0.10;0.10;;;;;;;23.12;37.41;100128.69;4946282;29;20039;-81
2021/07/25 15:37:26;;;;;;;0.10;0.10;;;;;;;23.10;36.88;100131.66;4959627;28;20081;-83
2021/07/25 15:39:52;;;;;;;0.10;0.10;;;;;;;23.14;37.09;100126.53;4911354;29;20566;-82
2021/07/25 15:42:19;;;;;;;0.10;0.10;;;;;;;23.19;37.16;100123.16;4936819;29;20103;-83
2021/07/25 15:44:46;;;;;;;0.10;0.10;;;;;;;23.17;36.81;100120.59;4940167;29;20042;-81
2021/07/25 15:47:14;;;;;;;0.17;0.17;;;;;;;23.21;37.03;100121.84;4957094;28;20074;-84
2021/07/25 15:49:42;;;;;;;0.10;0.10;;;;;;;23.29;36.97;100124.34;4928612;28;20385;-83
2021/07/25 15:52:08;;;;;;;0.10;0.10;;;;;;;23.29;37.15;100129.88;4930893;29;20043;-81
2021/07/25 15:54:38;;;;;;;0.10;0.10;;;;;;;23.16;37.66;100124.44;4919776;29;20059;-85
2021/07/25 15:57:05;;;;;;;0.10;0.10;;;;;;;22.98;38.37;100127.09;4946826;29;20063;-84
2021/07/25 15:59:32;;;;;;;0.10;0.10;;;;;;;22.82;38.65;100125.66;4958473;28;20078;-83
2021/07/25 16:01:59;;;;;;;0.10;0.10;;;;;;;22.74;38.92;100131.41;4950983;29;20058;-81
2021/07/25 16:04:26;;;;;;;0.10;0.10;;;;;;;22.67;39.03;100125.94;4948206;29;20098;-84
2021/07/25 16:06:53;;;;;;;0.10;0.10;;;;;;;22.62;39.55;100131.25;4955605;29;20036;-81
2021/07/25 16:09:21;;;;;;;0.10;0.10;;;;;;;22.57;38.58;100125.56;4959075;28;20036;-84
2021/07/25 16:11:50;;;;;;;0.10;0.10;;;;;;;22.61;38.61;100129.56;4935791;29;20556;-82
2021/07/25 16:14:20;;;;;;;0.10;0.10;;;;;;;22.66;38.42;100128.91;4936464;29;20035;-82
2021/07/25 16:16:49;;;;;;;0.10;0.10;;;;;;;22.56;38.88;100134.84;4927234;29;20114;-84
2021/07/25 16:19:15;;;;;;;0.10;0.10;;;;;;;22.53;39.18;100125.16;4960029;28;20105;-82
2021/07/25 16:21:43;;;;;;;0.10;0.10;;;;;;;22.48;39.06;100121.34;4939640;29;20054;-84
2021/07/25 16:24:10;;;;;;;0.10;0.10;;;;;;;22.43;39.23;100127.50;4911284;29;20103;-83
2021/07/25 16:26:39;;;;;;;0.10;0.10;;;;;;;22.38;39.41;100110.78;4905760;29;20143;-83
2021/07/25 16:29:05;;;;;;;0.00;0.00;;;;;;;22.38;39.53;100121.81;4936155;29;20047;-82
2021/07/25 16:31:35;;;;;;;0.10;0.10;;;;;;;22.34;40.01;100123.28;4929190;29;20024;-83
2021/07/25 16:34:05;;;;;;;0.10;0.10;;;;;;;22.23;39.12;100113.81;4925883;29;20570;-82
2021/07/25 16:36:34;;;;;;;0.10;0.10;;;;;;;22.21;39.61;100117.81;4881465;29;20147;-80
2021/07/25 16:39:02;;;;;;;0.10;0.10;;;;;;;22.14;40.34;100115.09;4921758;29;20043;-82
2021/07/25 16:41:29;;;;;;;0.10;0.10;;;;;;;22.14;40.12;100126.09;4920172;29;20158;-83
2021/07/25 16:43:59;;;;;;;0.10;0.10;;;;;;;22.10;40.52;100116.53;4893141;29;20079;-82
2021/07/25 16:46:28;;;;;;;0.10;0.10;;;;;;;22.02;39.92;100120.38;4906678;29;20044;-81
2021/07/25 16:48:57;;;;;;;0.10;0.10;;;;;;;22.02;40.51;100116.78;4921181;29;20044;-83
2021/07/25 16:51:24;;;;;;;0.08;0.08;;;;;;;22.02;40.20;100116.78;4908393;29;20572;-83
2021/07/25 16:53:51;;;;;;;0.10;0.10;;;;;;;21.94;40.43;100114.22;4904849;29;20058;-81
2021/07/25 16:56:17;;;;;;;0.95;0.10;;;;;;;21.99;40.38;100118.03;4906777;29;20044;-84
2021/07/25 16:58:44;;;;;;;0.10;0.10;;;;;;;21.94;40.96;100114.22;4944495;29;20075;-83
2021/07/25 17:01:10;;;;;;;0.10;0.10;;;;;;;21.85;41.12;100111.72;4929476;29;20064;-82
2021/07/25 17:03:41;;;;;;;0.25;0.20;;;;;;;21.79;41.20;100112.59;4931187;29;20052;-81
2021/07/25 17:06:07;;;;;;;0.10;0.10;;;;;;;21.75;41.26;100127.78;4922428;29;20043;-82
2021/07/25 17:08:34;;;;;;;0.10;0.10;;;;;;;21.72;41.16;100125.50;4925232;29;20090;-83
2021/07/25 17:11:01;;;;;;;0.10;0.10;;;;;;;21.66;41.86;100123.59;4943345;29;20073;-83
2021/07/25 17:13:29;;;;;;;0.10;0.10;;;;;;;21.63;42.10;100135.84;4939561;29;20055;-82
2021/07/25 17:15:55;;;;;;;0.10;0.10;;;;;;;21.57;42.80;100130.34;4939882;29;20111;-83
2021/07/25 17:18:21;;;;;;;0.10;0.10;;;;;;;21.50;42.77;100140.50;4901489;29;20047;-82
2021/07/25 17:20:47;;;;;;;0.10;0.10;;;;;;;21.46;42.98;100139.22;4908462;29;20134;-82
2021/07/25 17:23:14;;;;;;;0.10;0.10;;;;;;;21.41;43.03;100148.97;4905412;29;20043;-81
2021/07/25 17:25:41;;;;;;;0.10;0.10;;;;;;;21.36;43.08;100140.50;4874880;29;20054;-82
2021/07/25 17:28:08;;;;;;;0.10;0.10;;;;;;;21.31;42.96;100148.47;4903994;29;20047;-81
2021/07/25 17:30:36;;;;;;;0.10;0.10;;;;;;;21.23;43.62;100150.59;4905845;29;20122;-81
2021/07/25 17:33:04;;;;;;;0.10;0.10;;;;;;;21.14;43.02;100139.78;4940538;29;20042;-83
2021/07/25 17:35:41;;;;;;;0.10;0.10;;;;;;;21.10;43.42;100143.19;4888921;29;20076;-81
2021/07/25 17:38:07;;;;;;;0.10;0.10;;;;;;;21.07;43.41;100147.19;4900865;29;20035;-82
2021/07/25 17:40:33;;;;;;;0.10;0.10;;;;;;;21.02;43.85;100148.84;4938037;29;20067;-83
2021/07/25 17:43:00;;;;;;;0.10;0.10;;;;;;;20.99;44.50;100154.75;4915325;29;20525;-81
2021/07/25 17:45:27;;;;;;;0.10;0.10;;;;;;;20.94;45.08;100158.97;4914385;29;20111;-82
2021/07/25 17:47:53;;;;;;;0.75;0.10;;;;;;;20.84;46.13;100157.66;4925953;29;20036;-82
2021/07/25 17:50:20;;;;;;;0.10;0.10;;;;;;;20.74;44.69;100158.06;4918746;29;20044;-82
2021/07/25 17:52:50;;;;;;;0.10;0.10;;;;;;;20.67;45.39;100159.94;4937624;29;20027;-83
2021/07/25 17:55:19;;;;;;;0.10;0.10;;;;;;;20.59;45.36;100155.47;4892279;29;20120;-82
2021/07/25 17:57:45;;;;;;;0.10;0.10;;;;;;;20.56;45.66;100160.53;4942440;29;20156;-83
2021/07/25 18:00:15;;;;;;;0.10;0.10;;;;;;;20.51;45.64;100168.50;4893623;29;20176;-82
2021/07/25 18:02:42;;;;;;;0.03;0.03;;;;;;;20.51;45.55;100165.75;4927613;29;20040;-81
2021/07/25 18:05:13;;;;;;;0.10;0.10;;;;;;;20.43;47.63;100166.75;4911162;29;20550;-83
2021/07/25 18:07:41;;;;;;;0.10;0.10;;;;;;;20.34;48.47;100170.72;4919432;29;20450;-82
2021/07/25 18:10:09;;;;;;;0.10;0.10;;;;;;;20.21;48.41;100179.72;4893405;29;20047;-83
2021/07/25 18:12:36;;;;;;;0.10;0.10;;;;;;;20.14;48.59;100173.31;4923317;29;20040;-82
2021/07/25 18:15:03;;;;;;;0.10;0.10;;;;;;;20.11;48.58;100168.22;4908183;29;20047;-83
2021/07/25 18:17:31;;;;;;;0.10;0.10;;;;;;;20.03;48.25;100171.13;4904621;29;20082;-81
2021/07/25 18:20:01;;;;;;;0.10;0.10;;;;;;;20.02;48.37;100174.94;4925003;29;20069;-83
2021/07/25 18:22:28;;;;;;;0.10;0.10;;;;;;;19.95;48.40;100175.72;4896030;29;20055;-82
2021/07/25 18:24:56;;;;;;;0.20;0.20;;;;;;;19.91;50.38;100174.44;4922719;29;20043;-82
2021/07/25 18:27:23;;;;;;;0.10;0.10;;;;;;;19.87;50.04;100178.63;4924156;29;20054;-82
2021/07/25 18:29:50;;;;;;;0.10;0.10;;;;;;;19.78;50.89;100174.31;4900893;29;20040;-82
2021/07/25 18:32:16;;;;;;;0.10;0.10;;;;;;;19.74;49.71;100181.25;4935101;29;20203;-82
2021/07/25 18:34:43;;;;;;;0.10;0.10;;;;;;;19.71;49.73;100173.44;4907461;29;20052;-82